createdAt,value
2022-11-15T05:30:53.319Z,28.00
2022-11-15T05:30:58.479Z,16.90
2022-11-15T05:31:58.251Z,15.70
2022-11-15T05:32:58.067Z,15.60
2022-11-15T05:33:58.049Z,14.90
2022-11-15T05:34:58.035Z,14.40
2022-11-15T05:35:58.011Z,15.50
2022-11-15T05:36:58.010Z,14.50
2022-11-15T05:37:57.981Z,15.20
2022-11-15T05:38:57.990Z,13.30
2022-11-15T05:39:57.961Z,14.60
2022-11-15T05:40:57.951Z,13.90
2022-11-15T05:41:57.933Z,13.10
2022-11-15T05:42:57.925Z,13.60
2022-11-15T05:43:57.921Z,13.30
2022-11-15T05:44:57.893Z,13.50
2022-11-15T05:45:57.873Z,13.00
2022-11-15T05:46:57.872Z,12.90
2022-11-15T05:47:57.853Z,13.30
2022-11-15T05:48:57.845Z,13.70
2022-11-15T05:49:57.814Z,12.90
2022-11-15T05:50:57.803Z,13.10
2022-11-15T05:51:57.802Z,12.30
2022-11-15T05:53:02.184Z,12.80
2022-11-15T05:53:58.776Z,14.60
2022-11-15T05:54:57.754Z,13.80
2022-11-15T05:55:57.737Z,14.60
2022-11-15T05:56:57.742Z,14.50
2022-11-15T05:57:57.715Z,13.90
2022-11-15T05:58:59.756Z,14.50
2022-11-15T05:59:57.685Z,14.30
2022-11-15T06:00:57.671Z,14.80
2022-11-15T06:01:57.717Z,15.40
2022-11-15T06:02:57.645Z,13.40
2022-11-15T06:03:57.899Z,15.10
2022-11-15T06:04:57.630Z,14.80
2022-11-15T06:05:57.602Z,14.40
2022-11-15T06:06:57.678Z,13.70
2022-11-15T06:07:57.578Z,13.60
2022-11-15T06:08:57.586Z,13.70
2022-11-15T06:09:58.542Z,13.70
2022-11-15T06:10:57.543Z,14.00
2022-11-15T06:11:57.530Z,14.30
2022-11-15T06:12:57.519Z,12.90
2022-11-15T06:13:57.528Z,14.80
2022-11-15T06:14:58.438Z,14.10
2022-11-15T06:15:57.473Z,14.10
2022-11-15T06:16:57.468Z,13.70
2022-11-15T06:17:57.446Z,13.30
2022-11-15T06:18:57.446Z,12.80
2022-11-15T06:19:57.429Z,13.50
2022-11-15T06:20:57.408Z,13.50
2022-11-15T06:21:57.390Z,12.60
2022-11-15T06:22:57.381Z,12.60
2022-11-15T06:23:57.380Z,13.80
2022-11-15T06:25:00.253Z,12.20
2022-11-15T06:25:58.360Z,12.60
2022-11-15T06:26:57.331Z,12.90
2022-11-15T06:27:57.560Z,12.70
2022-11-15T06:28:57.311Z,12.90
2022-11-15T06:29:57.282Z,12.10
2022-11-15T06:30:57.272Z,20.40
2022-11-15T06:31:57.252Z,13.30
2022-11-15T06:32:57.253Z,12.60
2022-11-15T06:33:57.252Z,12.90
2022-11-15T06:34:58.174Z,12.60
2022-11-15T06:35:57.223Z,12.80
2022-11-15T06:36:57.194Z,13.60
2022-11-15T06:37:58.129Z,12.40
2022-11-15T06:38:57.193Z,13.00
2022-11-15T06:39:58.153Z,12.00
2022-11-15T06:40:58.104Z,12.60
2022-11-15T06:41:57.134Z,12.20
2022-11-15T06:42:57.115Z,11.80
2022-11-15T06:43:58.074Z,13.20
2022-11-15T06:44:57.095Z,12.90
2022-11-15T06:45:57.338Z,11.90
2022-11-15T06:46:57.086Z,13.30
2022-11-15T06:47:57.046Z,14.70
2022-11-15T06:48:57.027Z,12.50
2022-11-15T06:49:57.041Z,13.30
2022-11-15T06:50:57.016Z,11.70
2022-11-15T06:51:57.017Z,11.80
2022-11-15T06:52:57.008Z,12.40
2022-11-15T06:53:56.984Z,11.70
2022-11-15T06:54:57.936Z,12.00
2022-11-15T06:55:56.968Z,11.00
2022-11-15T06:56:56.928Z,12.20
2022-11-15T06:57:57.877Z,12.10
2022-11-15T06:58:56.906Z,12.70
2022-11-15T06:59:57.847Z,11.60
2022-11-15T07:00:56.950Z,10.80
2022-11-15T07:01:56.869Z,11.10
2022-11-15T07:02:57.811Z,11.90
2022-11-15T07:03:57.791Z,12.20
2022-11-15T07:04:57.770Z,11.40
2022-11-15T07:05:56.835Z,11.60
2022-11-15T07:06:56.935Z,10.70
2022-11-15T07:07:57.739Z,11.20
2022-11-15T07:08:56.763Z,11.20
2022-11-15T07:09:56.772Z,11.60
2022-11-15T07:10:56.768Z,11.50
2022-11-15T07:11:56.755Z,11.90
2022-11-15T07:12:57.668Z,12.30
2022-11-15T07:13:56.712Z,10.60
2022-11-15T07:14:56.708Z,11.10
2022-11-15T07:15:57.629Z,11.10
2022-11-15T07:16:56.662Z,11.90
2022-11-15T07:17:56.672Z,12.90
2022-11-15T07:18:56.643Z,12.20
2022-11-15T07:19:56.653Z,11.40
2022-11-15T07:20:56.638Z,12.70
2022-11-15T07:21:56.604Z,10.90
2022-11-15T07:22:56.603Z,11.10
2022-11-15T07:23:56.583Z,11.50
2022-11-15T07:24:56.573Z,10.70
2022-11-15T07:25:56.544Z,11.10
2022-11-15T07:26:57.464Z,11.60
2022-11-15T07:27:56.510Z,11.90
2022-11-15T07:28:56.504Z,10.80
2022-11-15T07:29:56.780Z,11.40
2022-11-15T07:30:56.471Z,12.00
2022-11-15T07:31:56.464Z,11.60
2022-11-15T07:32:56.444Z,11.20
2022-11-15T07:33:56.444Z,12.00
2022-11-15T07:34:56.434Z,11.20
2022-11-15T07:35:56.405Z,11.70
2022-11-15T07:36:56.386Z,12.00
2022-11-15T07:37:56.385Z,11.50
2022-11-15T07:38:56.366Z,11.40
2022-11-15T07:39:56.366Z,11.60
2022-11-15T07:40:56.337Z,11.30
2022-11-15T07:41:56.326Z,10.70
2022-11-15T07:42:56.577Z,11.30
2022-11-15T07:43:56.301Z,11.50
2022-11-15T07:44:56.287Z,10.80
2022-11-15T07:45:59.354Z,11.30
2022-11-15T07:46:56.250Z,10.60
2022-11-15T07:47:56.245Z,12.00
2022-11-15T07:48:56.218Z,11.20
2022-11-15T07:49:56.219Z,11.10
2022-11-15T07:50:56.204Z,11.40
2022-11-15T07:51:56.189Z,11.20
2022-11-15T07:52:56.169Z,12.20
2022-11-15T07:53:56.161Z,11.30
2022-11-15T07:54:56.157Z,12.60
2022-11-15T07:55:56.142Z,11.40
2022-11-15T07:56:56.121Z,11.50
2022-11-15T07:57:56.119Z,11.70
2022-11-15T07:58:56.104Z,11.70
2022-11-15T07:59:56.116Z,12.70
2022-11-15T08:00:56.179Z,10.70
2022-11-15T08:01:56.127Z,12.00
2022-11-15T08:02:56.108Z,13.20
2022-11-15T08:03:56.023Z,11.20
2022-11-15T08:04:56.022Z,11.60
2022-11-15T08:05:56.000Z,11.90
2022-11-15T08:06:56.016Z,12.70
2022-11-15T08:07:56.078Z,12.50
2022-11-15T08:08:55.967Z,11.10
2022-11-15T08:09:55.959Z,12.10
2022-11-15T08:10:55.934Z,12.20
2022-11-15T08:11:55.932Z,12.90
2022-11-15T08:12:56.032Z,10.80
2022-11-15T08:13:55.894Z,11.90
2022-11-15T08:14:55.894Z,11.50
2022-11-15T08:15:57.827Z,11.40
2022-11-15T08:16:55.855Z,10.70
2022-11-15T08:17:56.792Z,10.70
2022-11-15T08:18:55.815Z,10.90
2022-11-15T08:19:55.840Z,12.30
2022-11-15T08:20:55.791Z,10.70
2022-11-15T08:21:55.788Z,11.60
2022-11-15T08:22:55.786Z,11.30
2022-11-15T08:23:55.777Z,10.90
2022-11-15T08:24:55.757Z,10.20
2022-11-15T08:25:56.682Z,10.70
2022-11-15T08:26:55.860Z,11.10
2022-11-15T08:27:55.728Z,10.30
2022-11-15T08:28:55.697Z,10.30
2022-11-15T08:29:59.433Z,13.70
2022-11-15T08:30:55.657Z,11.60
2022-11-15T08:31:55.649Z,10.40
2022-11-15T08:32:55.632Z,10.60
2022-11-15T08:33:55.635Z,10.30
2022-11-15T08:34:55.616Z,10.30
2022-11-15T08:35:55.689Z,10.90
2022-11-15T08:36:55.629Z,10.70
2022-11-15T08:37:55.564Z,10.90
2022-11-15T08:38:55.543Z,10.70
2022-11-15T08:39:55.551Z,10.40
2022-11-15T08:40:55.517Z,10.50
2022-11-15T08:41:55.511Z,10.80
2022-11-15T08:42:55.720Z,10.90
2022-11-15T08:43:55.751Z,10.00
2022-11-15T08:44:55.462Z,11.10
2022-11-15T08:45:55.454Z,10.60
2022-11-15T08:46:55.436Z,10.40
2022-11-15T08:47:55.427Z,10.10
2022-11-15T08:48:55.412Z,10.20
2022-11-15T08:49:55.401Z,11.00
2022-11-15T08:50:55.386Z,10.80
2022-11-15T08:51:55.384Z,10.70
2022-11-15T08:52:56.304Z,11.60
2022-11-15T08:53:55.593Z,12.70
2022-11-15T08:54:55.319Z,12.10
2022-11-15T08:55:55.330Z,12.90
2022-11-15T08:56:55.304Z,12.20
2022-11-15T08:57:55.295Z,13.40
2022-11-15T08:58:55.304Z,11.00
2022-11-15T08:59:55.268Z,10.30
2022-11-15T09:00:55.256Z,10.50
2022-11-15T09:01:55.270Z,10.60
2022-11-15T09:02:55.227Z,10.20
2022-11-15T09:03:55.251Z,11.20
2022-11-15T09:04:55.216Z,11.80
2022-11-15T09:05:55.236Z,11.20
2022-11-15T09:06:55.215Z,14.10
2022-11-15T09:07:55.159Z,10.20
2022-11-15T09:08:55.220Z,10.60
2022-11-15T09:09:55.147Z,11.10
2022-11-15T09:10:55.913Z,10.80
2022-11-15T09:12:01.048Z,12.00
2022-11-15T09:12:56.079Z,11.30
2022-11-15T09:13:55.098Z,10.60
2022-11-15T09:14:55.059Z,10.80
2022-11-15T09:15:55.049Z,12.70
2022-11-15T09:16:55.030Z,12.00
2022-11-15T09:17:55.020Z,9.80
2022-11-15T09:18:55.029Z,8.30
2022-11-15T09:19:54.990Z,8.40
2022-11-15T09:20:54.978Z,9.90
2022-11-15T09:21:54.974Z,8.70
2022-11-15T09:22:54.971Z,8.80
2022-11-15T09:23:54.961Z,8.50
2022-11-15T09:24:54.954Z,9.20
2022-11-15T09:25:54.923Z,8.70
2022-11-15T09:26:54.890Z,8.60
2022-11-15T09:27:54.882Z,8.90
2022-11-15T09:28:54.881Z,7.90
2022-11-15T09:29:54.874Z,8.10
2022-11-15T09:30:54.853Z,8.50
2022-11-15T09:31:54.834Z,7.50
2022-11-15T09:32:54.819Z,9.00
2022-11-15T09:33:54.815Z,8.40
2022-11-15T09:34:54.793Z,8.60
2022-11-15T09:35:54.779Z,8.10
2022-11-15T09:36:54.765Z,8.00
2022-11-15T09:37:56.438Z,7.90
2022-11-15T09:38:54.744Z,8.30
2022-11-15T09:39:54.724Z,7.90
2022-11-15T09:40:54.714Z,7.20
2022-11-15T09:41:54.732Z,7.70
2022-11-15T09:42:54.697Z,8.00
2022-11-15T09:43:54.685Z,8.10
2022-11-15T09:44:54.665Z,10.00
2022-11-15T09:45:54.649Z,8.30
2022-11-15T09:46:54.636Z,7.40
2022-11-15T09:47:54.618Z,8.00
2022-11-15T09:48:54.619Z,8.00
2022-11-15T09:49:57.843Z,12.10
2022-11-15T09:50:54.590Z,7.50
2022-11-15T09:51:54.571Z,8.30
2022-11-15T09:52:54.569Z,8.80
2022-11-15T09:54:37.923Z,7.20
2022-11-15T09:54:56.198Z,7.60
2022-11-15T09:55:54.510Z,9.60
2022-11-15T09:56:54.511Z,7.30
2022-11-15T09:57:54.508Z,7.90
2022-11-15T09:58:54.502Z,8.00
2022-11-15T09:59:54.459Z,7.80
2022-11-15T10:00:54.525Z,8.80
2022-11-15T10:01:54.478Z,10.90
2022-11-15T10:02:54.421Z,7.70
2022-11-15T10:03:54.412Z,7.10
2022-11-15T10:04:54.390Z,8.10
2022-11-15T10:05:54.382Z,8.10
2022-11-15T10:06:54.403Z,7.70
2022-11-15T10:07:54.352Z,7.80
2022-11-15T10:08:54.363Z,7.30
2022-11-15T10:09:54.332Z,7.80
2022-11-15T10:11:15.791Z,7.10
2022-11-15T10:11:55.292Z,7.80
2022-11-15T10:12:54.384Z,7.40
2022-11-15T10:13:54.283Z,7.30
2022-11-15T10:14:54.833Z,6.80
2022-11-15T10:15:54.267Z,6.80
2022-11-15T10:16:54.226Z,6.60
2022-11-15T10:17:54.221Z,11.00
2022-11-15T10:18:54.214Z,7.00
2022-11-15T10:19:54.196Z,6.00
2022-11-15T10:20:54.181Z,5.90
2022-11-15T10:21:54.171Z,6.20
2022-11-15T10:22:54.145Z,6.60
2022-11-15T10:23:54.146Z,6.00
2022-11-15T10:24:54.116Z,6.00
2022-11-15T10:25:54.119Z,8.30
2022-11-15T10:26:54.099Z,6.20
2022-11-15T10:27:54.086Z,5.70
2022-11-15T10:28:54.078Z,6.10
2022-11-15T10:29:54.057Z,6.20
2022-11-15T10:30:54.068Z,6.10
2022-11-15T10:31:54.033Z,6.00
2022-11-15T10:32:54.017Z,5.80
2022-11-15T10:33:54.018Z,5.30
2022-11-15T10:34:53.988Z,6.10
2022-11-15T10:35:53.989Z,5.70
2022-11-15T10:36:53.959Z,6.60
2022-11-15T10:37:53.960Z,12.60
2022-11-15T10:38:53.940Z,5.70
2022-11-15T10:39:53.938Z,6.10
2022-11-15T10:40:53.952Z,5.90
2022-11-15T10:41:53.920Z,5.90
2022-11-15T10:42:54.122Z,5.70
2022-11-15T10:43:53.883Z,5.20
2022-11-15T10:44:53.852Z,6.00
2022-11-15T10:45:53.863Z,5.80
2022-11-15T10:46:53.855Z,6.00
2022-11-15T10:47:53.813Z,14.30
2022-11-15T10:48:53.817Z,5.80
2022-11-15T10:49:53.813Z,5.50
2022-11-15T10:50:53.783Z,5.80
2022-11-15T10:51:53.773Z,6.00
2022-11-15T10:52:53.743Z,5.00
2022-11-15T10:53:53.757Z,5.00
2022-11-15T10:54:53.737Z,7.40
2022-11-15T10:55:53.715Z,5.40
2022-11-15T10:56:53.706Z,5.30
2022-11-15T10:57:53.684Z,4.90
2022-11-15T10:58:53.956Z,5.00
2022-11-15T10:59:53.658Z,6.10
2022-11-15T11:00:53.676Z,5.30
2022-11-15T11:01:53.640Z,5.00
2022-11-15T11:02:53.616Z,4.90
2022-11-15T11:03:53.619Z,5.20
2022-11-15T11:04:53.588Z,5.80
2022-11-15T11:05:53.580Z,5.40
2022-11-15T11:06:53.642Z,5.00
2022-11-15T11:07:53.548Z,4.70
2022-11-15T11:08:53.549Z,5.20
2022-11-15T11:09:53.529Z,5.00
2022-11-15T11:10:57.171Z,5.10
2022-11-15T11:11:54.501Z,5.10
2022-11-15T11:12:53.479Z,5.20
2022-11-15T11:13:53.479Z,5.40
2022-11-15T11:14:53.461Z,5.50
2022-11-15T11:15:53.453Z,5.60
2022-11-15T11:16:53.444Z,13.40
2022-11-15T11:17:53.422Z,5.40
2022-11-15T11:18:53.401Z,5.50
2022-11-15T11:19:53.390Z,5.10
2022-11-15T11:20:53.391Z,8.00
2022-11-15T11:21:53.373Z,5.80
2022-11-15T11:22:54.313Z,6.10
2022-11-15T11:23:53.333Z,6.30
2022-11-15T11:24:53.327Z,15.40
2022-11-15T11:25:53.313Z,6.30
2022-11-15T11:26:56.967Z,5.50
2022-11-15T11:27:53.284Z,5.40
2022-11-15T11:28:53.274Z,8.20
2022-11-15T11:29:53.264Z,5.90
2022-11-15T11:30:53.274Z,6.00
2022-11-15T11:31:53.226Z,6.90
2022-11-15T11:32:55.426Z,5.40
2022-11-15T11:33:53.215Z,5.30
2022-11-15T11:34:53.206Z,5.60
2022-11-15T11:35:53.189Z,5.50
2022-11-15T11:36:53.176Z,6.10
2022-11-15T11:37:53.162Z,5.90
2022-11-15T11:38:55.883Z,5.30
2022-11-15T11:39:53.126Z,5.40
2022-11-15T11:40:53.142Z,6.60
2022-11-15T11:41:53.098Z,9.20
2022-11-15T11:42:53.116Z,5.70
2022-11-15T11:43:53.078Z,5.80
2022-11-15T11:44:53.068Z,5.00
2022-11-15T11:45:53.059Z,7.70
2022-11-15T11:46:53.040Z,9.60
2022-11-15T11:47:53.019Z,5.50
2022-11-15T11:48:53.009Z,10.60
2022-11-15T11:49:52.990Z,5.30
2022-11-15T11:50:52.990Z,6.00
2022-11-15T11:51:52.969Z,6.50
2022-11-15T11:52:52.961Z,6.30
2022-11-15T11:53:52.942Z,10.40
2022-11-15T11:54:52.935Z,6.50
2022-11-15T11:55:52.922Z,5.90
2022-11-15T11:56:52.907Z,6.30
2022-11-15T11:57:52.889Z,12.80
2022-11-15T11:58:52.884Z,10.20
2022-11-15T11:59:52.864Z,10.60
2022-11-15T12:00:52.864Z,6.10
2022-11-15T12:01:52.922Z,11.80
2022-11-15T12:02:52.913Z,5.50
2022-11-15T12:03:52.823Z,5.60
2022-11-15T12:04:52.804Z,5.70
2022-11-15T12:05:52.794Z,5.70
2022-11-15T12:06:52.861Z,6.70
2022-11-15T12:07:52.757Z,6.30
2022-11-15T12:08:52.746Z,7.10
2022-11-15T12:09:52.733Z,5.60
2022-11-15T12:10:52.726Z,7.10
2022-11-15T12:11:52.707Z,9.40
2022-11-15T12:12:52.700Z,5.50
2022-11-15T12:13:52.676Z,5.00
2022-11-15T12:14:52.668Z,10.80
2022-11-15T12:15:52.657Z,6.00
2022-11-15T12:16:52.658Z,12.80
2022-11-15T12:17:52.638Z,6.70
2022-11-15T12:18:52.649Z,5.20
2022-11-15T12:19:52.640Z,7.40
2022-11-15T12:20:52.656Z,5.40
2022-11-15T12:21:52.576Z,5.30
2022-11-15T12:22:52.581Z,5.70
2022-11-15T12:23:52.580Z,6.40
2022-11-15T12:24:52.550Z,7.20
2022-11-15T12:25:52.621Z,6.00
2022-11-15T12:26:52.530Z,5.20
2022-11-15T12:27:52.493Z,5.50
2022-11-15T12:29:06.870Z,8.10
2022-11-15T12:29:53.483Z,10.50
2022-11-15T12:30:52.480Z,5.80
2022-11-15T12:31:52.445Z,5.20
2022-11-15T12:32:52.430Z,4.80
2022-11-15T12:33:52.420Z,8.20
2022-11-15T12:34:52.406Z,4.90
2022-11-15T12:35:52.410Z,4.90
2022-11-15T12:36:52.393Z,14.10
2022-11-15T12:37:52.382Z,7.90
2022-11-15T12:38:52.355Z,6.80
2022-11-15T12:39:52.335Z,5.00
2022-11-15T12:40:52.337Z,5.10
2022-11-15T12:41:52.326Z,5.10
2022-11-15T12:42:52.342Z,5.20
2022-11-15T12:43:52.330Z,5.00
2022-11-15T12:44:52.283Z,6.50
2022-11-15T12:45:52.267Z,4.60
2022-11-15T12:46:52.243Z,6.60
2022-11-15T12:47:52.308Z,5.30
2022-11-15T12:48:52.219Z,4.70
2022-11-15T12:49:52.218Z,5.00
2022-11-15T12:50:52.226Z,4.90
2022-11-15T12:51:52.180Z,5.20
2022-11-15T12:52:52.169Z,5.30
2022-11-15T12:53:52.150Z,5.50
2022-11-15T12:54:52.139Z,14.90
2022-11-15T12:55:52.141Z,4.90
2022-11-15T12:56:52.110Z,4.90
2022-11-15T12:57:52.106Z,9.70
2022-11-15T12:58:52.091Z,5.10
2022-11-15T12:59:52.079Z,5.00
2022-11-15T13:00:52.163Z,5.80
2022-11-15T13:01:52.113Z,4.90
2022-11-15T13:02:52.034Z,7.00
2022-11-15T13:03:52.027Z,5.30
2022-11-15T13:04:52.025Z,5.80
2022-11-15T13:05:52.045Z,5.20
2022-11-15T13:06:52.043Z,9.70
2022-11-15T13:07:51.975Z,7.60
2022-11-15T13:08:52.095Z,5.80
2022-11-15T13:09:51.944Z,4.70
2022-11-15T13:10:51.956Z,5.40
2022-11-15T13:11:51.922Z,5.80
2022-11-15T13:12:51.914Z,5.90
2022-11-15T13:13:51.917Z,4.90
2022-11-15T13:14:51.924Z,8.70
2022-11-15T13:15:51.867Z,5.60
2022-11-15T13:16:51.864Z,6.80
2022-11-15T13:17:51.846Z,7.60
2022-11-15T13:18:51.827Z,5.40
2022-11-15T13:19:51.815Z,6.60
2022-11-15T13:20:51.806Z,8.40
2022-11-15T13:21:51.788Z,5.70
2022-11-15T13:22:51.779Z,6.80
2022-11-15T13:23:51.758Z,5.80
2022-11-15T13:24:51.771Z,6.30
2022-11-15T13:25:51.731Z,8.20
2022-11-15T13:26:51.730Z,5.90
2022-11-15T13:27:51.710Z,10.10
2022-11-15T13:28:51.701Z,6.40
2022-11-15T13:29:51.680Z,6.60
2022-11-15T13:30:52.628Z,6.80
2022-11-15T13:31:51.669Z,6.90
2022-11-15T13:32:52.602Z,7.80
2022-11-15T13:33:51.632Z,7.40
2022-11-15T13:34:52.834Z,7.80
2022-11-15T13:35:51.603Z,7.40
2022-11-15T13:36:52.588Z,7.30
2022-11-15T13:37:51.574Z,7.90
2022-11-15T13:38:51.565Z,8.60
2022-11-15T13:39:51.556Z,8.20
2022-11-15T13:40:51.541Z,7.70
2022-11-15T13:41:51.524Z,7.10
2022-11-15T13:42:51.514Z,7.90
2022-11-15T13:43:51.486Z,8.10
2022-11-15T13:44:51.485Z,8.50
2022-11-15T13:45:51.465Z,7.00
2022-11-15T13:46:51.466Z,6.50
2022-11-15T13:47:51.436Z,6.40
2022-11-15T13:48:51.427Z,6.60
2022-11-15T13:49:51.428Z,6.80
2022-11-15T13:50:51.398Z,6.40
2022-11-15T13:51:51.398Z,6.10
2022-11-15T13:52:52.379Z,10.00
2022-11-15T13:53:51.410Z,6.50
2022-11-15T13:54:51.401Z,6.30
2022-11-15T13:55:51.339Z,8.00
2022-11-15T13:56:51.330Z,6.00
2022-11-15T13:57:52.105Z,6.40
2022-11-15T13:58:51.331Z,6.20
2022-11-15T13:59:51.278Z,6.80
2022-11-15T14:00:51.272Z,6.30
2022-11-15T14:01:51.335Z,6.90
2022-11-15T14:02:52.201Z,6.50
2022-11-15T14:03:51.229Z,7.30
2022-11-15T14:04:51.213Z,6.70
2022-11-15T14:05:51.211Z,7.20
2022-11-15T14:06:51.236Z,7.00
2022-11-15T14:07:51.173Z,7.50
2022-11-15T14:08:51.177Z,8.00
2022-11-15T14:09:51.143Z,7.70
2022-11-15T14:10:51.136Z,8.30
2022-11-15T14:11:51.125Z,7.60
2022-11-15T14:12:51.155Z,7.90
2022-11-15T14:13:51.094Z,7.80
2022-11-15T14:14:51.083Z,8.30
2022-11-15T14:15:51.075Z,11.20
2022-11-15T14:16:51.075Z,8.00
2022-11-15T14:17:51.045Z,7.90
2022-11-15T14:18:51.034Z,7.90
2022-11-15T14:19:51.015Z,7.80
2022-11-15T14:20:51.065Z,7.80
2022-11-15T14:21:51.006Z,8.90
2022-11-15T14:22:50.991Z,10.60
2022-11-15T14:23:50.968Z,6.90
2022-11-15T14:24:50.956Z,7.30
2022-11-15T14:25:50.948Z,6.90
2022-11-15T14:26:50.931Z,7.20
2022-11-15T14:27:51.868Z,7.60
2022-11-15T14:28:50.899Z,7.80
2022-11-15T14:29:50.879Z,8.50
2022-11-15T14:30:50.872Z,7.00
2022-11-15T14:31:50.869Z,13.00
2022-11-15T14:32:51.805Z,7.40
2022-11-15T14:33:50.830Z,9.00
2022-11-15T14:34:50.820Z,8.10
2022-11-15T14:35:50.802Z,6.40
2022-11-15T14:36:50.811Z,13.70
2022-11-15T14:37:50.783Z,6.60
2022-11-15T14:38:50.773Z,8.90
2022-11-15T14:39:50.752Z,6.80
2022-11-15T14:40:50.766Z,7.10
2022-11-15T14:41:50.743Z,7.90
2022-11-15T14:42:50.728Z,6.70
2022-11-15T14:43:50.702Z,7.00
2022-11-15T14:44:50.735Z,6.70
2022-11-15T14:45:50.713Z,8.80
2022-11-15T14:46:50.710Z,10.70
2022-11-15T14:47:50.657Z,10.90
2022-11-15T14:48:51.597Z,6.80
2022-11-15T14:49:50.626Z,7.50
2022-11-15T14:50:50.614Z,6.50
2022-11-15T14:51:50.596Z,7.00
2022-11-15T14:52:50.596Z,8.20
2022-11-15T14:53:50.565Z,7.60
2022-11-15T14:54:50.569Z,6.90
2022-11-15T14:55:50.547Z,7.50
2022-11-15T14:56:50.546Z,8.80
2022-11-15T14:57:50.517Z,7.10
2022-11-15T14:58:50.514Z,10.70
2022-11-15T14:59:50.498Z,12.30
2022-11-15T15:00:50.481Z,6.80
2022-11-15T15:01:50.467Z,7.20
2022-11-15T15:02:51.419Z,7.20
2022-11-15T15:03:50.438Z,6.70
2022-11-15T15:04:50.419Z,7.30
2022-11-15T15:05:50.409Z,7.20
2022-11-15T15:06:50.544Z,9.30
2022-11-15T15:07:50.475Z,7.10
2022-11-15T15:08:50.383Z,7.80
2022-11-15T15:09:50.356Z,7.00
2022-11-15T15:10:50.343Z,6.90
2022-11-15T15:11:50.330Z,8.10
2022-11-15T15:12:50.321Z,7.30
2022-11-15T15:13:50.331Z,7.50
2022-11-15T15:14:50.285Z,8.40
2022-11-15T15:15:50.297Z,11.40
2022-11-15T15:16:50.262Z,7.20
2022-11-15T15:17:50.274Z,7.20
2022-11-15T15:18:50.236Z,7.00
2022-11-15T15:19:50.223Z,7.00
2022-11-15T15:20:50.219Z,7.70
2022-11-15T15:21:50.223Z,7.70
2022-11-15T15:22:50.194Z,8.20
2022-11-15T15:23:50.174Z,7.30
2022-11-15T15:24:50.156Z,8.30
2022-11-15T15:25:50.294Z,7.90
2022-11-15T15:26:50.136Z,7.70
2022-11-15T15:27:50.165Z,7.50
2022-11-15T15:28:50.115Z,7.80
2022-11-15T15:29:50.094Z,7.80
2022-11-15T15:30:50.080Z,8.30
2022-11-15T15:31:50.076Z,9.00
2022-11-15T15:32:50.057Z,11.50
2022-11-15T15:33:50.040Z,8.00
2022-11-15T15:34:50.019Z,8.90
2022-11-15T15:35:50.018Z,10.10
2022-11-15T15:36:50.001Z,14.00
2022-11-15T15:37:50.018Z,9.50
2022-11-15T15:38:49.986Z,9.10
2022-11-15T15:39:49.969Z,8.80
2022-11-15T15:40:51.698Z,9.80
2022-11-15T15:41:53.506Z,9.20
2022-11-15T15:42:50.938Z,10.40
2022-11-15T15:43:49.911Z,9.90
2022-11-15T15:44:49.885Z,9.70
2022-11-15T15:45:49.890Z,10.80
2022-11-15T15:46:49.864Z,10.40
2022-11-15T15:47:49.875Z,11.40
2022-11-15T15:48:49.833Z,12.30
2022-11-15T15:49:49.840Z,11.10
2022-11-15T15:50:49.808Z,11.70
2022-11-15T15:51:49.803Z,10.30
2022-11-15T15:52:49.801Z,10.40
2022-11-15T15:53:49.773Z,12.00
2022-11-15T15:54:49.760Z,11.10
2022-11-15T15:55:49.743Z,10.90
2022-11-15T15:56:54.936Z,10.10
2022-11-15T15:57:50.742Z,10.50
2022-11-15T15:58:49.732Z,9.70
2022-11-15T15:59:49.695Z,11.30
2022-11-15T16:00:49.719Z,9.20
2022-11-15T16:01:49.666Z,10.00
2022-11-15T16:02:49.656Z,10.70
2022-11-15T16:03:49.646Z,11.20
2022-11-15T16:04:49.621Z,9.60
2022-11-15T16:05:49.658Z,10.20
2022-11-15T16:06:49.641Z,10.40
2022-11-15T16:07:49.650Z,9.30
2022-11-15T16:09:13.468Z,9.30
2022-11-15T16:09:50.566Z,9.60
2022-11-15T16:10:49.558Z,9.60
2022-11-15T16:11:49.799Z,10.20
2022-11-15T16:12:49.525Z,10.60
2022-11-15T16:13:49.515Z,10.70
2022-11-15T19:34:28.644Z,10.80
2022-11-15T19:34:33.396Z,28.90
2022-11-15T19:35:33.399Z,22.90
2022-11-15T19:36:33.374Z,23.10
2022-11-15T19:37:33.370Z,23.40
2022-11-15T19:38:33.364Z,25.40
2022-11-15T19:39:38.270Z,25.20
2022-11-15T19:40:35.284Z,25.70
2022-11-15T19:41:34.255Z,24.30
2022-11-15T19:42:33.283Z,24.00
2022-11-15T19:43:33.614Z,22.00
2022-11-15T19:44:33.276Z,21.50
2022-11-15T19:45:34.193Z,20.40
2022-11-15T19:46:33.244Z,21.30
2022-11-15T19:47:33.222Z,21.30
2022-11-15T19:48:34.170Z,22.80
2022-11-15T19:49:34.168Z,23.50
2022-11-15T19:50:33.183Z,23.70
2022-11-15T19:51:33.156Z,23.20
2022-11-15T19:52:33.148Z,22.50
2022-11-15T19:53:35.193Z,21.60
2022-11-15T19:54:33.120Z,23.00
2022-11-15T19:55:33.116Z,20.50
2022-11-15T19:56:33.294Z,20.50
2022-11-15T19:57:33.098Z,20.20
2022-11-15T19:58:33.068Z,22.60
2022-11-15T19:59:33.053Z,21.30
2022-11-15T20:00:33.061Z,19.80
2022-11-15T20:01:33.139Z,20.80
2022-11-15T20:02:33.019Z,20.20
2022-11-15T20:03:33.354Z,20.10
2022-11-15T20:04:33.947Z,20.80
2022-11-15T20:05:32.980Z,20.30
2022-11-15T20:06:32.971Z,20.10
2022-11-15T20:07:32.984Z,18.00
2022-11-15T20:08:33.105Z,22.10
2022-11-15T20:09:32.923Z,19.80
2022-11-15T20:10:34.128Z,19.50
2022-11-15T20:11:32.901Z,19.40
2022-11-15T20:12:32.885Z,23.70
2022-11-15T20:13:33.816Z,22.40
2022-11-15T20:14:32.871Z,23.30
2022-11-15T20:15:32.842Z,21.80
2022-11-15T20:16:32.830Z,21.50
2022-11-15T20:17:32.804Z,20.50
2022-11-15T20:18:33.018Z,19.60
2022-11-15T20:19:33.743Z,20.90
2022-11-15T20:20:32.773Z,27.90
2022-11-15T20:21:32.753Z,21.30
2022-11-15T20:22:32.750Z,20.40
2022-11-15T20:23:32.733Z,22.50
2022-11-15T20:24:32.746Z,24.30
2022-11-15T20:25:32.734Z,21.50
2022-11-15T20:26:32.684Z,20.40
2022-11-15T20:27:32.684Z,21.20
2022-11-15T20:28:32.912Z,25.70
2022-11-15T20:29:32.646Z,20.30
2022-11-15T20:30:32.645Z,20.90
2022-11-15T20:31:32.650Z,20.50
2022-11-15T20:32:32.697Z,19.60
2022-11-15T20:33:32.594Z,19.90
2022-11-15T20:34:32.583Z,19.70
2022-11-15T20:35:32.580Z,22.10
2022-11-15T20:36:32.568Z,23.90
2022-11-15T20:37:32.537Z,23.50
2022-11-15T20:38:32.910Z,21.60
2022-11-15T20:39:32.525Z,23.00
2022-11-15T20:40:32.529Z,21.90
2022-11-15T20:41:32.537Z,22.30
2022-11-15T20:42:32.478Z,23.50
2022-11-15T20:43:32.484Z,22.50
2022-11-15T20:44:32.458Z,23.30
2022-11-15T20:45:32.449Z,23.90
2022-11-15T20:46:32.417Z,23.40
2022-11-15T20:47:32.399Z,25.10
2022-11-15T20:48:32.715Z,25.60
2022-11-15T20:49:32.370Z,26.10
2022-11-15T20:50:47.458Z,45.00
2022-11-15T20:51:33.351Z,38.40
2022-11-15T20:52:32.336Z,49.40
2022-11-15T20:53:33.291Z,90.40
2022-11-15T20:54:32.321Z,55.40
2022-11-15T20:55:32.300Z,46.50
2022-11-15T20:56:32.299Z,40.00
2022-11-15T20:57:32.278Z,30.40
2022-11-15T20:58:32.740Z,27.00
2022-11-15T20:59:32.240Z,27.60
2022-11-15T21:00:32.240Z,26.60
2022-11-15T21:01:32.326Z,24.00
2022-11-15T21:02:32.330Z,27.70
2022-11-15T21:03:32.182Z,23.60
2022-11-15T21:04:32.174Z,23.50
2022-11-15T21:05:32.170Z,24.60
2022-11-15T21:06:32.156Z,23.60
2022-11-15T21:07:32.160Z,22.70
2022-11-15T21:08:32.367Z,21.00
2022-11-15T21:09:32.110Z,21.80
2022-11-15T21:10:32.103Z,22.20
2022-11-15T21:11:32.078Z,20.30
2022-11-15T21:12:32.091Z,23.30
2022-11-15T21:13:32.060Z,22.40
2022-11-15T21:14:32.037Z,22.20
2022-11-15T21:15:32.983Z,22.30
2022-11-15T21:16:32.014Z,21.30
2022-11-15T21:17:31.995Z,22.80
2022-11-15T21:18:32.320Z,21.70
2022-11-15T21:19:35.858Z,22.40
2022-11-15T21:20:32.967Z,21.50
2022-11-15T21:21:31.936Z,19.30
2022-11-15T21:22:31.935Z,21.00
2022-11-15T21:23:31.916Z,18.70
2022-11-15T21:24:31.916Z,21.30
2022-11-15T21:25:31.895Z,21.00
2022-11-15T21:26:31.880Z,20.30
2022-11-15T21:27:31.876Z,26.00
2022-11-15T21:28:32.308Z,32.50
2022-11-15T21:29:31.837Z,29.20
2022-11-15T21:30:31.835Z,26.90
2022-11-15T21:31:31.829Z,28.40
2022-11-15T21:32:31.806Z,29.90
2022-11-15T21:33:31.788Z,23.50
2022-11-15T21:34:31.778Z,25.20
2022-11-15T21:35:31.767Z,26.00
2022-11-15T21:36:31.762Z,25.60
2022-11-15T21:37:31.738Z,27.60
2022-11-15T21:38:32.056Z,28.70
2022-11-15T21:39:31.699Z,24.40
2022-11-15T21:40:31.711Z,24.00
2022-11-15T21:41:31.671Z,29.40
2022-11-15T21:42:31.910Z,24.80
2022-11-15T21:43:31.925Z,23.80
2022-11-15T21:44:31.641Z,26.20
2022-11-15T21:45:31.637Z,29.20
2022-11-15T21:46:31.663Z,29.40
2022-11-15T21:47:31.591Z,27.70
2022-11-15T21:48:31.898Z,26.20
2022-11-15T21:49:31.563Z,25.90
2022-11-15T21:50:31.581Z,25.50
2022-11-15T21:51:31.553Z,25.30
2022-11-15T21:52:31.571Z,25.90